Faro, Portugal

2:41 PM WEST on October 24, 2014 (GMT +0100)
Faro | Change Station
CLOSE
Current Station
Airport
Location: Faro,
Elevation: 26 ft
Nearby Weather Stations

Elev 26 ft 37.01 °N, 7.97 °W | Updated 11 minutes ago

Clear
Clear
79 °F
Feels Like 79 °F
N
14
Wind Variable Wind from ESE

Today
High -- | Low -- °F
--% Chance of Precip.
Yesterday
High -- | Low -- °F
Precip. -- in
7:47 AM 6:43 PM
New Moon, 0% visible
Pressure 29.95 in
Visibility -9999.0 miles
Clouds
Dew Point 52 °F
Humidity 39%
Rainfall 0.00 in
Snow Depth Not available.
UV Not available.
Pollen Not available.
Air Quality Not available.
Flu Activity Not available.
METAR LPFR 241330Z 11012KT CAVOK 26/11 Q1014

More Conditions Fewer Conditions

Pressure 29.95 in
Visibility -9999.0 miles
Clouds
Dew Point 52 °F
Humidity 39%
Rainfall 0.00 in
Snow Depth Not available.
UV Not available.
Pollen Not available.
Air Quality Not available.
Flu Activity Not available.
METAR LPFR 241330Z 11012KT CAVOK 26/11 Q1014

More Conditions Fewer Conditions

10-Day Weather Forecast

Almanac

Astronomy

Oct. 24, 2014 Rise Set
Actual Time 7:47 AM WEST 6:43 PM WEST
Civil Twilight 7:21 AM WEST 7:10 PM WEST
Nautical Twilight 6:50 AM WEST 7:40 PM WEST
Astronomical Twilight 6:20 AM WEST 8:10 PM WEST
Moon 8:12 AM WEST 7:15 PM WEST
Length of Visible Light 11h 48m
Length of Day
10h 55m
Tomorrow will be 2m 12s shorter.
New Moon, 0% of the Moon is Illuminated
Today
New Moon
Oct 30
First Quarter
Nov 6
Full
Nov 14
Last Quarter
Nov 22
New

Yesterday's Extremes

Country Highs Country Lows

Community

WunderPhotos

Upload Photos

1,764,551 photos uploaded!

WunderBlogs® & News

Nearby

Snow Depth

Not available.

Earthquake Activity

City Distance Mag. Time & Date
No recent earthquake activity has been reported nearby.
Minimum magnitude displayed is 2.5.

Coastal Water Temperatures

Place Temperature
No Stations Reporting

Nearby Weather Stations